createdAt,value
2018-02-22T00:00:53.612Z,27.40
2018-02-22T00:01:56.906Z,25.25
2018-02-22T00:02:59.410Z,24.75
2018-02-22T00:04:01.929Z,25.33
2018-02-22T00:05:04.460Z,25.88
2018-02-22T00:06:06.980Z,27.83
2018-02-22T00:07:09.603Z,25.98
2018-02-22T00:08:12.911Z,28.87
2018-02-22T00:09:15.507Z,24.65
2018-02-22T00:10:18.022Z,28.30
2018-02-22T00:11:20.617Z,27.10
2018-02-22T00:12:23.920Z,27.60
2018-02-22T00:13:26.439Z,22.42
2018-02-22T00:14:28.980Z,26.75
2018-02-22T00:15:31.495Z,20.85
2018-02-22T00:16:34.023Z,24.23
2018-02-22T00:17:36.622Z,31.10
2018-02-22T00:18:39.157Z,25.62
2018-02-22T00:19:41.667Z,28.35
2018-02-22T00:20:44.208Z,22.87
2018-02-22T00:21:46.742Z,28.12
2018-02-22T00:22:50.779Z,29.23
2018-02-22T00:23:53.679Z,22.33
2018-02-22T00:24:56.939Z,31.60
2018-02-22T00:26:00.329Z,23.98
2018-02-22T00:27:02.826Z,26.85
2018-02-22T00:28:05.341Z,26.75
2018-02-22T00:29:08.728Z,24.87
2018-02-22T00:30:11.262Z,27.17
2018-02-22T00:31:13.787Z,24.60
2018-02-22T00:32:16.289Z,25.17
2018-02-22T00:33:18.792Z,27.60
2018-02-22T00:34:21.354Z,24.30
2018-02-22T00:35:23.851Z,26.37
2018-02-22T00:36:26.361Z,24.20
2018-02-22T00:37:29.664Z,29.20
2018-02-22T00:38:32.160Z,24.92
2018-02-22T00:39:34.706Z,25.15
2018-02-22T00:40:37.214Z,28.48
2018-02-22T00:41:39.711Z,25.40
2018-02-22T00:42:43.038Z,25.85
2018-02-22T00:43:46.719Z,25.65
2018-02-22T00:44:49.255Z,26.87
2018-02-22T00:45:51.796Z,26.85
2018-02-22T00:46:54.310Z,27.45
2018-02-22T00:47:56.833Z,23.70
2018-02-22T00:48:59.411Z,26.92
2018-02-22T00:50:01.928Z,27.15
2018-02-22T00:51:05.954Z,29.55
2018-02-22T00:52:08.510Z,30.88
2018-02-22T00:53:11.054Z,24.95
2018-02-22T00:54:14.350Z,26.70
2018-02-22T00:55:16.879Z,27.50
2018-02-22T00:56:19.387Z,24.10
2018-02-22T00:57:21.944Z,23.20
2018-02-22T00:58:24.486Z,25.90
2018-02-22T00:59:28.494Z,31.10
2018-02-22T01:00:31.072Z,23.02
2018-02-22T01:01:34.066Z,25.20
2018-02-22T01:02:36.634Z,24.42
2018-02-22T01:03:39.152Z,24.87
2018-02-22T01:04:41.649Z,27.77
2018-02-22T01:05:44.196Z,28.83
2018-02-22T01:06:46.768Z,25.27
2018-02-22T01:07:50.030Z,26.65
2018-02-22T01:08:52.605Z,28.55
2018-02-22T01:09:55.162Z,28.55
2018-02-22T01:10:58.458Z,26.95
2018-02-22T01:12:00.987Z,29.95
2018-02-22T01:13:03.509Z,32.80
2018-02-22T01:14:06.119Z,31.00
2018-02-22T01:15:08.671Z,28.83
2018-02-22T01:16:11.192Z,28.38
2018-02-22T01:17:13.807Z,26.65
2018-02-22T01:18:16.341Z,25.40
2018-02-22T01:19:18.844Z,23.90
2018-02-22T01:20:21.384Z,27.27
2018-02-22T01:21:23.870Z,29.35
2018-02-22T01:22:27.137Z,31.37
2018-02-22T01:23:29.638Z,30.30
2018-02-22T01:24:32.897Z,27.17
2018-02-22T01:25:35.650Z,26.33
2018-02-22T01:26:38.238Z,30.12
2018-02-22T01:27:41.516Z,30.20
2018-02-22T01:28:44.034Z,24.95
2018-02-22T01:29:46.660Z,26.08
2018-02-22T01:30:49.177Z,30.35
2018-02-22T01:31:51.719Z,26.67
2018-02-22T01:32:54.210Z,27.58
2018-02-22T01:33:57.605Z,30.23
2018-02-22T01:35:00.102Z,23.70
2018-02-22T01:36:02.645Z,28.73
2018-02-22T01:37:05.130Z,24.95
2018-02-22T01:38:08.417Z,27.50
2018-02-22T01:39:10.902Z,24.40
2018-02-22T01:40:14.186Z,29.33
2018-02-22T01:41:16.720Z,30.40
2018-02-22T01:42:19.257Z,28.65
2018-02-22T01:43:21.808Z,30.48
2018-02-22T01:44:25.229Z,29.75
2018-02-22T01:45:27.726Z,29.52
2018-02-22T01:46:30.271Z,27.20
2018-02-22T01:47:32.804Z,26.37
2018-02-22T01:48:35.353Z,27.02
2018-02-22T01:49:39.419Z,24.33
2018-02-22T01:50:42.013Z,27.58
2018-02-22T01:51:44.521Z,27.90
2018-02-22T01:52:47.048Z,32.78
2018-02-22T01:53:49.546Z,27.77
2018-02-22T01:54:52.798Z,27.48
2018-02-22T01:55:55.311Z,28.00
2018-02-22T01:56:58.636Z,28.67
2018-02-22T01:58:01.252Z,25.95
2018-02-22T01:59:03.773Z,27.65
2018-02-22T02:00:07.839Z,25.42
2018-02-22T02:01:11.513Z,32.30
2018-02-22T02:02:14.037Z,31.35
2018-02-22T02:03:16.785Z,29.12
2018-02-22T02:04:20.575Z,30.60
2018-02-22T02:05:23.104Z,29.40
2018-02-22T02:06:25.647Z,37.58
2018-02-22T02:07:28.460Z,26.12
2018-02-22T02:08:30.961Z,29.33
2018-02-22T02:09:33.478Z,25.70
2018-02-22T02:10:36.759Z,25.02
2018-02-22T02:11:39.406Z,29.15
2018-02-22T02:12:42.026Z,29.35
2018-02-22T02:13:44.541Z,28.73
2018-02-22T02:14:47.066Z,27.50
2018-02-22T02:15:49.574Z,30.00
2018-02-22T02:16:52.080Z,27.20
2018-02-22T02:17:55.518Z,30.73
2018-02-22T02:18:58.789Z,31.60
2018-02-22T02:20:01.302Z,31.10
2018-02-22T02:21:03.967Z,27.20
2018-02-22T02:22:07.222Z,28.23
2018-02-22T02:23:09.757Z,28.73
2018-02-22T02:24:13.787Z,31.15
2018-02-22T02:25:16.312Z,28.77
2018-02-22T02:26:18.808Z,30.67
2018-02-22T02:27:21.318Z,27.55
2018-02-22T02:28:24.626Z,27.67
2018-02-22T02:29:27.158Z,27.23
2018-02-22T02:30:29.661Z,32.42
2018-02-22T02:31:32.292Z,28.77
2018-02-22T02:32:34.791Z,29.17
2018-02-22T02:33:38.038Z,29.45
2018-02-22T02:34:40.545Z,32.00
2018-02-22T02:35:43.850Z,24.67
2018-02-22T02:36:46.344Z,29.60
2018-02-22T02:37:48.934Z,32.95
2018-02-22T02:38:52.218Z,30.20
2018-02-22T02:39:54.724Z,32.88
2018-02-22T02:40:57.265Z,28.10
2018-02-22T02:41:59.799Z,28.95
2018-02-22T02:43:02.297Z,26.67
2018-02-22T02:44:05.145Z,28.83
2018-02-22T02:45:07.699Z,30.02
2018-02-22T02:46:10.220Z,29.20
2018-02-22T02:47:12.715Z,28.12
2018-02-22T02:48:15.325Z,27.62
2018-02-22T02:49:18.587Z,33.58
2018-02-22T02:50:21.095Z,31.23
2018-02-22T02:51:24.433Z,31.42
2018-02-22T02:52:27.721Z,28.35
2018-02-22T02:53:30.224Z,26.77
2018-02-22T02:54:32.732Z,27.62
2018-02-22T02:55:35.263Z,27.85
2018-02-22T02:56:38.558Z,28.92
2018-02-22T02:57:41.063Z,30.10
2018-02-22T02:58:43.591Z,33.20
2018-02-22T02:59:46.122Z,27.50
2018-02-22T03:00:48.660Z,28.20
2018-02-22T03:01:51.254Z,30.80
2018-02-22T03:02:54.544Z,28.20
2018-02-22T03:03:57.145Z,29.48
2018-02-22T03:04:59.677Z,30.02
2018-02-22T03:06:02.188Z,25.27
2018-02-22T03:07:04.732Z,29.25
2018-02-22T03:08:07.233Z,28.40
2018-02-22T03:09:09.830Z,32.97
2018-02-22T03:10:13.527Z,28.40
2018-02-22T03:11:16.020Z,29.58
2018-02-22T03:12:18.654Z,31.05
2018-02-22T03:13:21.159Z,28.87
2018-02-22T03:14:24.430Z,30.25
2018-02-22T03:15:26.987Z,30.25
2018-02-22T03:16:29.538Z,26.40
2018-02-22T03:17:32.140Z,28.77
2018-02-22T03:18:34.651Z,29.35
2018-02-22T03:19:37.190Z,25.58
2018-02-22T03:20:39.709Z,30.02
2018-02-22T03:21:42.236Z,26.45
2018-02-22T03:22:44.762Z,28.15
2018-02-22T03:23:47.303Z,26.37
2018-02-22T03:24:49.839Z,31.15
2018-02-22T03:25:52.454Z,36.70
2018-02-22T03:26:55.080Z,25.83
2018-02-22T03:27:57.593Z,29.95
2018-02-22T03:29:00.180Z,33.83
2018-02-22T03:30:03.446Z,36.05
2018-02-22T03:31:05.985Z,25.83
2018-02-22T03:32:08.569Z,28.38
2018-02-22T03:33:11.890Z,31.77
2018-02-22T03:34:14.497Z,27.50
2018-02-22T03:35:17.013Z,29.87
2018-02-22T03:36:19.556Z,29.52
2018-02-22T03:37:22.062Z,26.95
2018-02-22T03:38:24.586Z,31.05
2018-02-22T03:39:27.070Z,28.73
2018-02-22T03:40:30.334Z,28.55
2018-02-22T03:41:32.837Z,26.35
2018-02-22T03:42:36.100Z,31.10
2018-02-22T03:43:38.630Z,31.60
2018-02-22T03:44:41.195Z,29.73
2018-02-22T03:45:43.713Z,28.73
2018-02-22T03:46:46.235Z,28.92
2018-02-22T03:47:48.804Z,27.15
2018-02-22T03:48:51.339Z,32.22
2018-02-22T03:49:54.648Z,31.20
2018-02-22T03:50:57.142Z,32.30
2018-02-22T03:52:00.375Z,29.48
2018-02-22T03:53:03.651Z,29.85
2018-02-22T03:54:06.189Z,31.90
2018-02-22T03:55:08.720Z,28.55
2018-02-22T03:56:11.423Z,31.23
2018-02-22T03:57:13.947Z,32.00
2018-02-22T03:58:16.441Z,28.80
2018-02-22T03:59:18.942Z,33.47
2018-02-22T04:00:21.529Z,31.33
2018-02-22T04:01:24.034Z,31.77
2018-02-22T04:02:26.584Z,32.17
2018-02-22T04:03:29.244Z,29.73
2018-02-22T04:04:31.755Z,30.62
2018-02-22T04:05:34.363Z,36.95
2018-02-22T04:06:36.912Z,30.50
2018-02-22T04:07:39.463Z,27.17
2018-02-22T04:08:42.095Z,28.90
2018-02-22T04:09:44.669Z,33.42
2018-02-22T04:10:47.185Z,31.05
2018-02-22T04:11:49.799Z,37.45
2018-02-22T04:12:52.325Z,33.22
2018-02-22T04:13:54.868Z,32.90
2018-02-22T04:14:57.369Z,33.33
2018-02-22T04:16:00.245Z,28.70
2018-02-22T04:17:02.776Z,36.47
2018-02-22T04:18:05.309Z,30.33
2018-02-22T04:19:07.874Z,32.55
2018-02-22T04:20:11.191Z,33.35
2018-02-22T04:21:14.454Z,28.40
2018-02-22T04:22:18.479Z,32.58
2018-02-22T04:23:21.000Z,32.92
2018-02-22T04:24:23.676Z,31.27
2018-02-22T04:25:26.304Z,27.65
2018-02-22T04:26:29.681Z,30.35
2018-02-22T04:27:32.627Z,35.47
2018-02-22T04:28:35.175Z,31.62
2018-02-22T04:29:37.703Z,33.15
2018-02-22T04:30:40.215Z,31.70
2018-02-22T04:31:42.730Z,31.15
2018-02-22T04:32:45.376Z,28.98
2018-02-22T04:33:47.980Z,34.60
2018-02-22T04:34:50.540Z,33.65
2018-02-22T04:35:53.933Z,32.70
2018-02-22T04:36:56.493Z,33.90
2018-02-22T04:37:58.996Z,33.00
2018-02-22T04:39:01.502Z,30.30
2018-02-22T04:40:04.138Z,33.55
2018-02-22T04:41:06.626Z,28.12
2018-02-22T04:42:09.131Z,34.25
2018-02-22T04:43:11.622Z,29.67
2018-02-22T04:44:14.180Z,33.05
2018-02-22T04:45:16.791Z,31.40
2018-02-22T04:46:19.298Z,30.58
2018-02-22T04:47:21.822Z,30.37
2018-02-22T04:48:24.329Z,31.12
2018-02-22T04:49:27.635Z,29.73
2018-02-22T04:50:30.136Z,27.83
2018-02-22T04:51:32.644Z,30.90
2018-02-22T04:52:35.201Z,32.00
2018-02-22T04:53:37.706Z,33.55
2018-02-22T04:54:40.198Z,33.13
2018-02-22T04:55:43.542Z,31.33
2018-02-22T04:56:46.830Z,31.58
2018-02-22T04:57:49.472Z,30.65
2018-02-22T04:58:51.978Z,35.72
2018-02-22T04:59:54.493Z,35.08
2018-02-22T05:00:57.003Z,32.78
2018-02-22T05:02:00.379Z,32.10
2018-02-22T05:03:02.967Z,32.05
2018-02-22T05:04:06.613Z,33.95
2018-02-22T05:05:09.921Z,34.40
2018-02-22T05:06:13.004Z,34.10
2018-02-22T05:07:16.032Z,36.38
2018-02-22T05:08:18.775Z,34.17
2018-02-22T05:09:21.349Z,33.85
2018-02-22T05:10:23.871Z,36.17
2018-02-22T05:11:26.376Z,28.77
2018-02-22T05:12:28.885Z,31.10
2018-02-22T05:13:31.569Z,34.60
2018-02-22T05:14:34.861Z,33.10
2018-02-22T05:15:37.396Z,33.28
2018-02-22T05:16:39.913Z,39.15
2018-02-22T05:17:42.386Z,32.88
2018-02-22T05:18:44.901Z,35.17
2018-02-22T05:19:47.390Z,33.33
2018-02-22T05:20:49.880Z,35.05
2018-02-22T05:21:53.136Z,35.92
2018-02-22T05:22:56.405Z,35.55
2018-02-22T05:23:58.930Z,34.50
2018-02-22T05:25:01.476Z,36.92
2018-02-22T05:26:04.000Z,38.70
2018-02-22T05:27:07.381Z,28.20
2018-02-22T05:28:09.815Z,33.15
2018-02-22T05:29:12.334Z,31.17
2018-02-22T05:30:15.688Z,34.85
2018-02-22T05:31:18.185Z,34.05
2018-02-22T05:32:21.446Z,33.72
2018-02-22T05:33:24.015Z,32.63
2018-02-22T05:34:26.524Z,31.00
2018-02-22T05:35:29.811Z,36.53
2018-02-22T05:36:32.338Z,38.00
2018-02-22T05:37:34.839Z,43.00
2018-02-22T05:38:37.396Z,47.83
2018-02-22T05:39:39.873Z,40.22
2018-02-22T05:40:43.115Z,41.65
2018-02-22T05:41:45.595Z,37.47
2018-02-22T05:42:48.125Z,36.30
2018-02-22T05:43:50.623Z,38.88
2018-02-22T05:44:53.098Z,41.53
2018-02-22T05:45:56.371Z,47.05
2018-02-22T05:46:58.932Z,39.90
2018-02-22T05:48:01.452Z,33.17
2018-02-22T05:49:04.095Z,36.70
2018-02-22T05:50:06.763Z,39.33
2018-02-22T05:51:10.046Z,38.97
2018-02-22T05:52:12.664Z,43.63
2018-02-22T05:53:15.249Z,42.80
2018-02-22T05:54:18.526Z,41.22
2018-02-22T05:55:21.064Z,41.25
2018-02-22T05:56:23.654Z,34.90
2018-02-22T05:57:26.131Z,42.03
2018-02-22T05:58:28.674Z,35.85
2018-02-22T05:59:31.333Z,36.97
2018-02-22T06:00:33.960Z,38.00
2018-02-22T06:01:37.267Z,38.28
2018-02-22T06:02:39.785Z,44.30
2018-02-22T06:03:43.219Z,37.50
2018-02-22T06:04:45.982Z,38.92
2018-02-22T06:05:49.231Z,47.70
2018-02-22T06:06:51.707Z,37.72
2018-02-22T06:07:54.255Z,35.65
2018-02-22T06:08:56.808Z,37.50
2018-02-22T06:10:00.767Z,40.78
2018-02-22T06:11:04.864Z,37.97
2018-02-22T06:12:07.690Z,40.72
2018-02-22T06:13:10.202Z,44.65
2018-02-22T06:14:13.440Z,39.28
2018-02-22T06:15:16.830Z,41.85
2018-02-22T06:16:19.367Z,37.80
2018-02-22T06:17:21.962Z,42.42
2018-02-22T06:18:25.234Z,42.00
2018-02-22T06:19:27.860Z,39.40
2018-02-22T06:20:30.364Z,40.78
2018-02-22T06:21:32.901Z,42.17
2018-02-22T06:22:35.399Z,42.65
2018-02-22T06:23:38.663Z,43.40
2018-02-22T06:24:41.190Z,38.95
2018-02-22T06:25:43.709Z,38.47
2018-02-22T06:26:46.177Z,40.95
2018-02-22T06:27:48.651Z,42.88
2018-02-22T06:28:52.014Z,36.08
2018-02-22T06:29:54.506Z,41.47
2018-02-22T06:30:57.756Z,39.90
2018-02-22T06:32:01.004Z,41.15
2018-02-22T06:33:04.284Z,44.15
2018-02-22T06:34:06.942Z,35.38
2018-02-22T06:35:09.424Z,35.00
2018-02-22T06:36:11.938Z,43.80
2018-02-22T06:37:14.432Z,42.60
2018-02-22T06:38:16.934Z,51.70
2018-02-22T06:39:19.435Z,46.08
2018-02-22T06:40:22.309Z,48.15
2018-02-22T06:41:25.571Z,40.35
2018-02-22T06:42:28.856Z,40.15
2018-02-22T06:43:31.317Z,42.08
2018-02-22T06:44:34.622Z,41.45
2018-02-22T06:45:37.260Z,45.42
2018-02-22T06:46:39.741Z,39.08
2018-02-22T06:47:43.012Z,41.72
2018-02-22T06:48:45.491Z,43.05
2018-02-22T06:49:48.613Z,43.22
2018-02-22T06:50:51.135Z,40.92
2018-02-22T06:51:54.457Z,35.33
2018-02-22T06:52:56.989Z,39.88
2018-02-22T06:54:00.348Z,43.17
2018-02-22T06:55:02.827Z,35.85
2018-02-22T06:56:05.323Z,43.55
2018-02-22T06:57:07.791Z,36.08
2018-02-22T06:58:10.303Z,40.35
2018-02-22T06:59:12.878Z,38.42
2018-02-22T07:00:16.155Z,36.10
2018-02-22T07:01:19.395Z,36.85
2018-02-22T07:02:22.668Z,39.72
2018-02-22T07:03:25.281Z,38.33
2018-02-22T07:04:28.701Z,47.75
2018-02-22T07:05:32.070Z,38.72
2018-02-22T07:06:34.676Z,36.85
2018-02-22T07:07:37.264Z,39.67
2018-02-22T07:08:39.793Z,37.45
2018-02-22T07:09:42.452Z,38.50
2018-02-22T07:10:45.920Z,51.10
2018-02-22T07:11:49.206Z,39.53
2018-02-22T07:12:51.776Z,38.55
2018-02-22T07:13:55.047Z,39.83
2018-02-22T07:14:57.732Z,38.53
2018-02-22T07:16:01.018Z,33.42
2018-02-22T07:17:03.537Z,41.85
2018-02-22T07:18:06.797Z,37.70
2018-02-22T07:19:09.420Z,40.55
2018-02-22T07:20:11.945Z,36.58
2018-02-22T07:21:14.480Z,38.97
2018-02-22T07:22:18.938Z,42.92
2018-02-22T07:23:21.485Z,43.20
2018-02-22T07:24:24.015Z,38.88
2018-02-22T07:25:26.537Z,39.75
2018-02-22T07:26:29.232Z,48.00
2018-02-22T07:27:31.843Z,41.85
2018-02-22T07:28:34.425Z,41.25
2018-02-22T07:29:36.983Z,44.78
2018-02-22T07:30:39.499Z,42.53
2018-02-22T07:31:42.015Z,35.20
2018-02-22T07:32:44.565Z,33.33
2018-02-22T07:33:47.061Z,37.90
2018-02-22T07:34:49.609Z,37.92
2018-02-22T07:35:53.113Z,34.38
2018-02-22T07:36:55.598Z,42.65
2018-02-22T07:37:58.780Z,42.70
2018-02-22T07:39:01.310Z,45.33
2018-02-22T07:40:03.971Z,37.17
2018-02-22T07:41:06.554Z,40.78
2018-02-22T07:42:09.116Z,40.15
2018-02-22T07:43:11.687Z,41.03
2018-02-22T07:44:14.940Z,35.70
2018-02-22T07:45:18.243Z,38.33
2018-02-22T07:46:20.894Z,46.05
2018-02-22T07:47:23.391Z,37.40
2018-02-22T07:48:25.992Z,43.75
2018-02-22T07:49:29.283Z,33.55
2018-02-22T07:50:31.811Z,40.12
2018-02-22T07:51:34.338Z,33.08
2018-02-22T07:52:37.600Z,36.30
2018-02-22T07:53:40.848Z,38.88
2018-02-22T07:54:43.415Z,40.80
2018-02-22T07:55:45.896Z,36.22
2018-02-22T07:56:49.183Z,40.10
2018-02-22T07:57:51.862Z,36.25
2018-02-22T07:58:55.194Z,32.92
2018-02-22T07:59:58.559Z,34.97
2018-02-22T08:01:02.015Z,36.80
2018-02-22T08:02:05.329Z,36.95
2018-02-22T08:03:07.898Z,36.83
2018-02-22T08:04:10.391Z,36.40
2018-02-22T08:05:12.933Z,38.80
2018-02-22T08:06:16.195Z,34.05
2018-02-22T08:07:18.681Z,38.28
2018-02-22T08:08:21.950Z,33.50
2018-02-22T08:09:24.448Z,36.00
2018-02-22T08:10:27.701Z,39.97
2018-02-22T08:11:30.943Z,36.58
2018-02-22T08:12:34.194Z,35.63
2018-02-22T08:13:37.439Z,34.00
2018-02-22T08:14:40.081Z,37.83
2018-02-22T08:15:42.573Z,37.90
2018-02-22T08:16:45.828Z,37.72
2018-02-22T08:17:49.091Z,31.70
2018-02-22T08:18:51.576Z,38.65
2018-02-22T08:19:54.087Z,35.22
2018-02-22T08:20:56.580Z,35.33
2018-02-22T08:21:59.057Z,34.08
2018-02-22T08:23:02.331Z,33.72
2018-02-22T08:24:04.857Z,35.53
2018-02-22T08:25:07.441Z,34.58
2018-02-22T08:26:09.927Z,32.10
2018-02-22T08:27:13.127Z,38.83
2018-02-22T08:28:16.386Z,32.65
2018-02-22T08:29:18.864Z,37.13
2018-02-22T08:30:21.335Z,32.47
2018-02-22T08:31:23.815Z,36.90
2018-02-22T08:32:26.406Z,33.25
2018-02-22T08:33:28.918Z,38.47
2018-02-22T08:34:31.408Z,31.90
2018-02-22T08:35:33.903Z,32.20
2018-02-22T08:36:36.410Z,35.33
2018-02-22T08:37:38.942Z,30.92
2018-02-22T08:38:41.656Z,32.75
2018-02-22T08:39:44.155Z,33.50
2018-02-22T08:40:47.583Z,36.03
2018-02-22T08:41:52.471Z,35.58
2018-02-22T08:42:54.957Z,37.15
2018-02-22T08:43:57.462Z,34.50
2018-02-22T08:44:59.973Z,30.98
2018-02-22T08:46:02.476Z,29.55
2018-02-22T08:47:05.715Z,31.67
2018-02-22T08:48:08.983Z,33.83
2018-02-22T08:49:11.490Z,33.67
2018-02-22T08:50:14.769Z,34.30
2018-02-22T08:51:17.304Z,37.05
2018-02-22T08:52:19.783Z,33.05
2018-02-22T08:53:23.069Z,32.90
2018-02-22T08:54:25.711Z,32.40
2018-02-22T08:55:28.400Z,32.38
2018-02-22T08:56:31.028Z,31.60
2018-02-22T08:57:34.298Z,35.13
2018-02-22T08:58:36.759Z,32.78
2018-02-22T08:59:39.242Z,35.45
2018-02-22T09:00:41.783Z,34.13
2018-02-22T09:01:44.327Z,32.72
2018-02-22T09:02:46.825Z,31.48
2018-02-22T09:03:49.346Z,31.50
2018-02-22T09:04:51.878Z,33.63
2018-02-22T09:05:54.361Z,33.67
2018-02-22T09:06:57.622Z,30.08
2018-02-22T09:08:00.163Z,29.80
2018-02-22T09:09:02.708Z,31.17
2018-02-22T09:10:05.850Z,27.80
2018-02-22T09:11:08.368Z,28.75
2018-02-22T09:12:10.886Z,29.70
2018-02-22T09:13:13.366Z,35.22
2018-02-22T09:14:15.892Z,30.67
2018-02-22T09:15:19.995Z,30.37
2018-02-22T09:16:24.634Z,29.48
2018-02-22T09:17:27.168Z,32.67
2018-02-22T09:18:30.440Z,31.12
2018-02-22T09:19:32.985Z,28.85
2018-02-22T09:20:35.485Z,29.27
2018-02-22T09:21:37.963Z,32.65
2018-02-22T09:22:40.491Z,27.27
2018-02-22T09:23:42.999Z,30.52
2018-02-22T09:24:45.473Z,28.10
2018-02-22T09:25:47.979Z,29.48
2018-02-22T09:26:50.556Z,30.52
2018-02-22T09:27:53.042Z,30.42
2018-02-22T09:28:56.344Z,36.78
2018-02-22T09:29:58.865Z,30.95
2018-02-22T09:31:01.368Z,35.70
2018-02-22T09:32:03.845Z,26.50
2018-02-22T09:33:06.370Z,31.40
2018-02-22T09:34:09.620Z,25.50
2018-02-22T09:35:12.876Z,29.80
2018-02-22T09:36:16.134Z,27.10
2018-02-22T09:37:18.630Z,30.83
2018-02-22T09:38:21.882Z,32.85
2018-02-22T09:39:25.443Z,30.90
2018-02-22T09:40:28.024Z,33.47
2018-02-22T09:41:31.323Z,28.20
2018-02-22T09:42:33.814Z,29.10
2018-02-22T09:43:37.094Z,28.90
2018-02-22T09:44:39.565Z,25.00
2018-02-22T09:45:42.834Z,26.87
2018-02-22T09:46:46.087Z,21.65
2018-02-22T09:47:48.556Z,25.12
2018-02-22T09:48:51.028Z,23.80
2018-02-22T09:49:54.251Z,23.27
2018-02-22T09:50:58.819Z,21.50
2018-02-22T09:52:01.340Z,20.25
2018-02-22T09:53:03.829Z,20.55
2018-02-22T09:54:06.311Z,25.50
2018-02-22T09:55:09.540Z,20.48
2018-02-22T09:56:12.003Z,20.33
2018-02-22T09:57:14.502Z,21.37
2018-02-22T09:58:17.787Z,21.23
2018-02-22T09:59:20.272Z,19.55
2018-02-22T10:00:23.533Z,20.50
2018-02-22T10:01:26.019Z,20.70
2018-02-22T10:02:28.557Z,20.58
2018-02-22T10:03:32.145Z,22.98
2018-02-22T10:04:34.672Z,21.45
2018-02-22T10:05:37.185Z,22.40
2018-02-22T10:06:39.683Z,22.90
2018-02-22T10:07:42.969Z,26.90
2018-02-22T10:08:45.436Z,23.77
2018-02-22T10:09:48.009Z,24.10
2018-02-22T10:10:50.582Z,23.55
2018-02-22T10:11:53.030Z,23.05
2018-02-22T10:12:57.135Z,21.08
2018-02-22T10:13:59.629Z,21.58
2018-02-22T10:15:02.886Z,21.10
2018-02-22T10:16:05.386Z,20.23
2018-02-22T10:17:07.983Z,23.95
2018-02-22T10:18:10.510Z,22.80
2018-02-22T10:19:12.998Z,20.20
2018-02-22T10:20:15.484Z,21.77
2018-02-22T10:21:18.096Z,20.25
2018-02-22T10:22:20.786Z,22.35
2018-02-22T10:23:23.285Z,27.52
2018-02-22T10:24:26.990Z,21.35
2018-02-22T10:25:29.517Z,22.65
2018-02-22T10:26:32.008Z,28.77
2018-02-22T10:27:34.531Z,19.12
2018-02-22T10:28:37.017Z,20.48
2018-02-22T10:29:39.549Z,15.07
2018-02-22T10:30:42.829Z,16.75
2018-02-22T10:31:45.328Z,18.35
2018-02-22T10:32:48.589Z,18.77
2018-02-22T10:33:51.910Z,19.45
2018-02-22T10:34:55.145Z,16.30
2018-02-22T10:35:58.403Z,17.08
2018-02-22T10:37:01.646Z,21.48
2018-02-22T10:38:04.912Z,18.65
2018-02-22T10:39:07.554Z,18.77
2018-02-22T10:40:10.122Z,21.15
2018-02-22T10:41:13.451Z,25.48
2018-02-22T10:42:16.000Z,22.60
2018-02-22T10:43:18.497Z,17.12
2018-02-22T10:44:20.999Z,18.65
2018-02-22T10:45:23.509Z,18.37
2018-02-22T10:46:26.067Z,17.60
2018-02-22T10:47:28.558Z,18.77
2018-02-22T10:48:31.084Z,17.87
2018-02-22T10:49:33.549Z,18.37
2018-02-22T10:50:36.043Z,18.48
2018-02-22T10:51:39.307Z,17.35
2018-02-22T10:52:42.430Z,19.12
2018-02-22T10:53:45.063Z,18.27
2018-02-22T10:54:47.536Z,16.75
2018-02-22T10:55:50.100Z,18.55
2018-02-22T10:56:52.565Z,20.27
2018-02-22T10:57:55.082Z,17.02
2018-02-22T10:58:57.576Z,17.60
2018-02-22T11:00:00.098Z,13.82
2018-02-22T11:01:09.021Z,15.48
2018-02-22T11:02:17.187Z,16.40
2018-02-22T11:03:19.708Z,16.40
2018-02-22T11:04:22.268Z,13.57
2018-02-22T11:05:24.749Z,14.07
2018-02-22T11:06:27.389Z,15.10
2018-02-22T11:07:29.986Z,14.13
2018-02-22T11:08:32.537Z,15.75
2018-02-22T11:09:35.119Z,15.77
2018-02-22T11:10:37.693Z,14.27
2018-02-22T11:11:40.198Z,15.38
2018-02-22T11:12:42.695Z,15.02
2018-02-22T11:13:45.180Z,11.90
2018-02-22T11:14:47.674Z,14.90
2018-02-22T11:15:50.409Z,16.10
2018-02-22T11:16:52.898Z,13.57
2018-02-22T11:17:55.395Z,17.37
2018-02-22T11:18:57.902Z,17.37
2018-02-22T11:20:01.182Z,15.90
2018-02-22T11:21:03.685Z,15.80
2018-02-22T11:22:06.939Z,15.52
2018-02-22T11:23:10.196Z,15.02
2018-02-22T11:24:12.729Z,14.38
2018-02-22T11:25:15.259Z,16.80
2018-02-22T11:26:17.742Z,18.10
2018-02-22T11:27:20.206Z,15.75
2018-02-22T11:28:22.681Z,16.90
2018-02-22T11:29:25.185Z,12.45
2018-02-22T11:30:27.651Z,17.00
2018-02-22T11:31:31.298Z,16.50
2018-02-22T11:32:33.766Z,15.27
2018-02-22T11:33:36.301Z,13.43
2018-02-22T11:34:38.800Z,18.90
2018-02-22T11:35:41.295Z,13.43
2018-02-22T11:36:44.536Z,13.52
2018-02-22T11:37:47.236Z,15.30
2018-02-22T11:38:49.747Z,12.23
2018-02-22T11:39:52.235Z,13.68
2018-02-22T11:40:55.475Z,13.80
2018-02-22T11:41:58.723Z,13.07
2018-02-22T11:43:01.295Z,17.70
2018-02-22T11:44:03.805Z,15.63
2018-02-22T11:45:06.325Z,13.13
2018-02-22T11:46:08.859Z,15.70
2018-02-22T11:47:11.339Z,14.60
2018-02-22T11:48:13.934Z,12.90
2018-02-22T11:49:16.425Z,11.85
2018-02-22T11:50:18.907Z,12.65
2018-02-22T11:51:22.154Z,12.77
2018-02-22T11:52:24.867Z,12.57
2018-02-22T11:53:27.444Z,13.90
2018-02-22T11:54:29.997Z,15.73
2018-02-22T11:55:32.521Z,13.00
2018-02-22T11:56:34.988Z,12.25
2018-02-22T11:57:37.472Z,13.57
2018-02-22T11:58:39.983Z,12.82
2018-02-22T11:59:42.503Z,12.65
2018-02-22T12:00:45.012Z,12.68
2018-02-22T12:01:49.235Z,14.25
2018-02-22T12:02:51.737Z,13.43
2018-02-22T12:03:54.215Z,13.77
2018-02-22T12:04:57.584Z,14.00
2018-02-22T12:06:00.080Z,11.18
2018-02-22T12:07:02.605Z,16.60
2018-02-22T12:08:05.111Z,13.07
2018-02-22T12:09:07.583Z,13.95
2018-02-22T12:10:10.071Z,15.40
2018-02-22T12:11:12.592Z,13.57
2018-02-22T12:12:15.860Z,16.35
2018-02-22T12:13:19.097Z,13.68
2018-02-22T12:14:22.369Z,11.50
2018-02-22T12:15:24.868Z,9.52
2018-02-22T12:16:28.110Z,11.02
2018-02-22T12:17:31.402Z,11.32
2018-02-22T12:18:33.960Z,13.32
2018-02-22T12:19:36.488Z,11.85
2018-02-22T12:20:39.054Z,12.27
2018-02-22T12:21:41.566Z,11.00
2018-02-22T12:22:44.872Z,14.55
2018-02-22T12:23:48.426Z,11.63
2018-02-22T12:24:50.952Z,10.65
2018-02-22T12:25:54.095Z,8.90
2018-02-22T12:26:56.561Z,10.80
2018-02-22T12:27:59.107Z,9.25
2018-02-22T12:29:01.646Z,12.63
2018-02-22T12:30:04.146Z,9.52
2018-02-22T12:31:07.451Z,12.27
2018-02-22T12:32:09.929Z,11.27
2018-02-22T12:33:13.169Z,10.98
2018-02-22T12:34:15.677Z,8.13
2018-02-22T12:35:18.186Z,8.95
2018-02-22T12:36:21.442Z,9.25
2018-02-22T12:37:24.518Z,8.50
2018-02-22T12:38:27.055Z,10.40
2018-02-22T12:39:29.534Z,11.85
2018-02-22T12:40:32.028Z,10.25
2018-02-22T12:41:35.325Z,9.88
2018-02-22T12:42:37.806Z,12.00
2018-02-22T12:43:41.179Z,7.60
2018-02-22T12:44:43.656Z,14.95
2018-02-22T12:45:46.226Z,10.68
2018-02-22T12:46:48.696Z,10.18
2018-02-22T12:47:51.154Z,9.73
2018-02-22T12:48:54.412Z,10.07
2018-02-22T12:49:56.988Z,9.20
2018-02-22T12:51:00.293Z,10.15
2018-02-22T12:52:02.834Z,10.55
2018-02-22T12:53:05.338Z,10.07
2018-02-22T12:54:07.822Z,11.02
2018-02-22T12:55:10.934Z,12.15
2018-02-22T12:56:13.415Z,13.38
2018-02-22T12:57:16.666Z,12.40
2018-02-22T12:58:19.244Z,12.95
2018-02-22T12:59:22.016Z,12.50
2018-02-22T13:00:25.268Z,11.85
2018-02-22T13:01:27.771Z,13.65
2018-02-22T13:02:30.995Z,12.48
2018-02-22T13:03:34.239Z,13.52
2018-02-22T13:04:36.719Z,12.63
2018-02-22T13:05:39.234Z,12.27
2018-02-22T13:06:41.754Z,12.90
2018-02-22T13:07:44.268Z,13.18
2018-02-22T13:08:47.544Z,16.40
2018-02-22T13:09:50.002Z,14.73
2018-02-22T13:10:52.453Z,14.85
2018-02-22T13:11:55.813Z,10.65
2018-02-22T13:12:58.399Z,15.20
2018-02-22T13:14:00.903Z,13.55
2018-02-22T13:15:04.226Z,15.82
2018-02-22T13:16:06.818Z,13.65
2018-02-22T13:17:10.083Z,14.50
2018-02-22T13:18:12.594Z,14.87
2018-02-22T13:19:15.823Z,13.80
2018-02-22T13:20:18.286Z,14.07
2018-02-22T13:21:20.837Z,18.77
2018-02-22T13:22:23.329Z,16.55
2018-02-22T13:23:25.800Z,17.08
2018-02-22T13:24:28.295Z,14.80
2018-02-22T13:25:31.568Z,21.37
2018-02-22T13:26:34.064Z,14.82
2018-02-22T13:27:36.602Z,14.50
2018-02-22T13:28:39.102Z,18.30
2018-02-22T13:29:41.603Z,15.13